createdAt,value
2022-09-15T00:00:38.292Z,99340.63
2022-09-15T00:05:39.837Z,99328.47
2022-09-15T00:10:54.067Z,99334.81
2022-09-15T00:15:55.620Z,99331.22
2022-09-15T00:20:57.339Z,99325.13
2022-09-15T00:25:58.873Z,99317.97
2022-09-15T00:31:00.508Z,99313.09
2022-09-15T00:36:05.099Z,99327.03
2022-09-15T00:41:08.757Z,99320.44
2022-09-15T00:46:10.732Z,99329.31
2022-09-15T00:51:16.753Z,99327.75
2022-09-15T00:56:19.741Z,99309.63
2022-09-15T01:01:25.203Z,99315.56
2022-09-15T01:06:36.305Z,99309.09
2022-09-15T01:11:39.788Z,99303.09
2022-09-15T01:16:57.679Z,99298.16
2022-09-15T01:22:32.431Z,99306.69
2022-09-15T01:28:11.223Z,99307.41
2022-09-15T01:33:38.991Z,99293.72
2022-09-15T01:39:00.875Z,99288.09
2022-09-15T01:44:21.617Z,99290.72
2022-09-15T01:49:28.053Z,99295.88
2022-09-15T01:54:35.979Z,99292.59
2022-09-15T01:59:37.523Z,99296.19
2022-09-15T02:04:48.535Z,99299.69
2022-09-15T02:10:05.468Z,99302.13
2022-09-15T02:15:12.186Z,99297.13
2022-09-15T02:21:13.833Z,99300.13
2022-09-15T02:26:19.580Z,99295.09
2022-09-15T02:31:24.993Z,99285.66
2022-09-15T02:36:29.180Z,99288.44
2022-09-15T02:41:31.098Z,99293.69
2022-09-15T02:46:34.046Z,99294.19
2022-09-15T02:51:35.955Z,99291.97
2022-09-15T02:56:37.879Z,99296.97
2022-09-15T03:01:40.853Z,99295.53
2022-09-15T03:06:43.572Z,99299.91
2022-09-15T03:11:45.148Z,99291.84
2022-09-15T03:16:47.510Z,99289.59
2022-09-15T03:21:49.083Z,99293.41
2022-09-15T03:26:50.590Z,99287.81
2022-09-15T03:31:52.183Z,99289.66
2022-09-15T03:36:53.743Z,99291.53
2022-09-15T03:41:55.615Z,99291.75
2022-09-15T03:46:58.212Z,99310.53
2022-09-15T03:51:59.763Z,99294.16
2022-09-15T03:57:01.500Z,99290.75
2022-09-15T04:02:03.177Z,99294.91
2022-09-15T04:07:09.955Z,99292.66
2022-09-15T04:12:11.615Z,99298.69
2022-09-15T04:17:13.149Z,99287.09
2022-09-15T04:22:17.853Z,99283.28
2022-09-15T04:27:19.724Z,99280.81
2022-09-15T04:32:21.964Z,99283.25
2022-09-15T04:37:23.667Z,99287.63
2022-09-15T04:42:33.990Z,99291.97
2022-09-15T04:47:35.590Z,99306.66
2022-09-15T04:52:37.147Z,99317.50
2022-09-15T04:57:38.671Z,99313.44
2022-09-15T05:02:40.383Z,99320.16
2022-09-15T05:07:41.878Z,99322.69
2022-09-15T05:12:43.393Z,99320.22
2022-09-15T05:17:44.914Z,99329.63
2022-09-15T05:22:46.470Z,99331.34
2022-09-15T05:27:47.991Z,99328.34
2022-09-15T05:32:49.558Z,99341.13
2022-09-15T05:37:51.111Z,99347.00
2022-09-15T05:42:52.839Z,99366.22
2022-09-15T05:47:54.341Z,99362.41
2022-09-15T05:52:55.942Z,99365.97
2022-09-15T05:57:57.502Z,99378.09
2022-09-15T06:02:59.123Z,99372.84
2022-09-15T06:08:00.891Z,99380.06
2022-09-15T06:13:02.399Z,99379.28
2022-09-15T06:18:03.994Z,99392.22
2022-09-15T06:23:05.524Z,99389.44
2022-09-15T06:28:10.033Z,99393.88
2022-09-15T06:33:11.541Z,99422.94
2022-09-15T06:38:13.402Z,99428.69
2022-09-15T06:43:14.955Z,99441.94
2022-09-15T06:48:24.573Z,99432.31
2022-09-15T06:53:34.834Z,99441.38
2022-09-15T06:58:38.642Z,99446.25
2022-09-15T07:03:42.792Z,99448.16
2022-09-15T07:08:45.363Z,99453.69
2022-09-15T07:13:49.097Z,99456.16
2022-09-15T07:18:51.004Z,99458.09
2022-09-15T07:23:52.813Z,99462.25
2022-09-15T07:28:57.087Z,99461.47
2022-09-15T07:33:59.949Z,99470.84
2022-09-15T07:39:03.586Z,99483.28
2022-09-15T07:44:06.918Z,99502.03
2022-09-15T07:49:10.514Z,99528.69
2022-09-15T07:54:12.281Z,99526.72
2022-09-15T07:59:15.033Z,99514.88
2022-09-15T08:04:16.607Z,99530.66
2022-09-15T08:09:18.308Z,99538.09
2022-09-15T08:14:19.884Z,99554.00
2022-09-15T08:19:21.404Z,99570.50
2022-09-15T08:24:23.591Z,99574.69
2022-09-15T08:29:25.228Z,99595.66
2022-09-15T08:34:27.623Z,99603.97
2022-09-15T08:39:29.188Z,99596.97
2022-09-15T08:44:41.263Z,99615.13
2022-09-15T08:50:05.121Z,99625.00
2022-09-15T08:55:43.729Z,99657.19
2022-09-15T09:00:52.921Z,99652.94
2022-09-15T09:06:06.010Z,99660.59
2022-09-15T09:11:12.951Z,99663.03
2022-09-15T09:16:43.658Z,99669.31
2022-09-15T09:21:51.833Z,99681.13
2022-09-15T09:26:57.120Z,99685.00
2022-09-15T09:31:59.955Z,99711.06
2022-09-15T09:37:11.119Z,99705.88
2022-09-15T09:42:18.493Z,99719.72
2022-09-15T09:47:20.775Z,99720.31
2022-09-15T09:52:39.166Z,99745.88
2022-09-15T09:57:41.008Z,99733.19
2022-09-15T10:02:48.717Z,99716.84
2022-09-15T10:07:50.406Z,99726.91
2022-09-15T10:12:56.507Z,99721.53
2022-09-15T10:17:58.242Z,99730.56
2022-09-15T10:23:14.828Z,99738.91
2022-09-15T10:28:25.748Z,99730.28
2022-09-15T10:33:50.315Z,99760.94
2022-09-15T10:39:35.504Z,99766.91
2022-09-15T10:44:52.875Z,99766.22
2022-09-15T10:50:13.189Z,99760.44
2022-09-15T10:55:48.960Z,99753.63
2022-09-15T11:01:22.498Z,99766.63
2022-09-15T11:06:41.934Z,99759.03
2022-09-15T11:12:18.120Z,99767.91
2022-09-15T11:17:31.350Z,99770.13
2022-09-15T11:22:47.291Z,99764.00
2022-09-15T11:28:00.019Z,99761.84
2022-09-15T11:33:14.778Z,99779.50
2022-09-15T11:38:31.198Z,99795.13
2022-09-15T11:43:50.729Z,99799.22
2022-09-15T11:49:02.038Z,99801.69
2022-09-15T11:54:15.896Z,99789.78
2022-09-15T11:59:39.610Z,99774.84
2022-09-15T12:05:03.282Z,99754.16
2022-09-15T12:10:13.771Z,99751.56
2022-09-15T12:15:18.969Z,99743.31
2022-09-15T12:20:51.112Z,99733.47
2022-09-15T12:26:05.248Z,99725.28
2022-09-15T12:31:38.703Z,99725.25
2022-09-15T12:36:42.594Z,99711.28
2022-09-15T12:41:58.250Z,99706.75
2022-09-15T12:47:01.750Z,99714.28
2022-09-15T12:52:07.336Z,99719.38
2022-09-15T12:57:31.927Z,99717.88
2022-09-15T13:02:48.492Z,99712.91
2022-09-15T13:07:57.587Z,99716.63
2022-09-15T13:13:51.828Z,99706.06
2022-09-15T13:19:15.410Z,99707.44
2022-09-15T13:24:40.422Z,99707.91
2022-09-15T13:30:07.867Z,99715.09
2022-09-15T13:35:24.960Z,99711.31
2022-09-15T13:40:53.579Z,99708.66
2022-09-15T13:46:27.473Z,99701.75
2022-09-15T13:51:31.470Z,99697.00
2022-09-15T13:56:39.862Z,99702.31
2022-09-15T14:01:46.595Z,99699.41
2022-09-15T14:06:51.678Z,99693.59
2022-09-15T14:11:57.842Z,99675.78
2022-09-15T14:16:59.491Z,99672.31
2022-09-15T14:22:20.119Z,99668.88
2022-09-15T14:27:27.687Z,99681.19
2022-09-15T14:32:34.308Z,99677.78
2022-09-15T14:37:35.979Z,99674.13
2022-09-15T14:42:41.310Z,99681.31
2022-09-15T14:47:43.414Z,99683.34
2022-09-15T14:52:58.232Z,99680.91
2022-09-15T14:58:13.361Z,99679.00
2022-09-15T15:03:33.149Z,99675.28
2022-09-15T15:08:44.516Z,99678.81
2022-09-15T15:13:50.462Z,99673.78
2022-09-15T15:18:53.244Z,99679.53
2022-09-15T15:23:55.333Z,99673.91
2022-09-15T15:28:56.960Z,99672.63
2022-09-15T15:34:05.151Z,99676.94
2022-09-15T15:39:08.075Z,99686.88
2022-09-15T15:44:15.327Z,99680.50
2022-09-15T15:49:18.015Z,99687.00
2022-09-15T15:54:19.626Z,99694.41
2022-09-15T15:59:21.581Z,99691.34
2022-09-15T16:04:23.064Z,99690.91
2022-09-15T16:09:24.596Z,99684.66
2022-09-15T16:14:26.139Z,99688.66
2022-09-15T16:19:27.659Z,99704.78
2022-09-15T16:24:29.173Z,99703.84
2022-09-15T16:29:36.172Z,99703.72
2022-09-15T16:34:37.875Z,99709.31
2022-09-15T16:39:39.370Z,99710.91
2022-09-15T16:44:40.866Z,99708.03
2022-09-15T16:49:42.667Z,99712.41
2022-09-15T16:54:44.667Z,99713.72
2022-09-15T16:59:46.162Z,99708.53
2022-09-15T17:04:47.651Z,99713.16
2022-09-15T17:09:51.231Z,99699.81
2022-09-15T17:14:52.739Z,99705.81
2022-09-15T17:19:54.221Z,99704.59
2022-09-15T17:24:55.698Z,99692.03
2022-09-15T17:29:57.412Z,99694.69
2022-09-15T17:34:59.958Z,99687.72
2022-09-15T17:40:02.639Z,99690.50
2022-09-15T17:45:19.179Z,99680.66
2022-09-15T17:50:22.692Z,99686.03
2022-09-15T17:55:32.663Z,99679.75
2022-09-15T18:00:35.895Z,99689.47
2022-09-15T18:05:37.688Z,99684.53
2022-09-15T18:10:39.316Z,99688.19
2022-09-15T18:15:41.399Z,99693.50
2022-09-15T18:20:43.675Z,99691.06
2022-09-15T18:25:47.007Z,99691.41
2022-09-15T18:30:50.244Z,99698.63
2022-09-15T18:35:54.783Z,99695.63
2022-09-15T18:40:57.165Z,99698.91
2022-09-15T18:46:00.077Z,99700.75
2022-09-15T18:51:01.779Z,99704.81
2022-09-15T18:56:14.339Z,99715.53
2022-09-15T19:01:17.880Z,99715.19
2022-09-15T19:06:19.491Z,99731.94
2022-09-15T19:11:21.065Z,99724.97
2022-09-15T19:16:34.610Z,99730.97
2022-09-15T19:21:47.107Z,99726.47
2022-09-15T19:26:48.807Z,99739.59
2022-09-15T19:31:50.398Z,99742.22
2022-09-15T19:36:51.940Z,99739.16
2022-09-15T19:41:53.514Z,99739.06
2022-09-15T19:46:55.031Z,99742.81
2022-09-15T19:51:56.636Z,99752.38
2022-09-15T19:56:58.215Z,99744.34
2022-09-15T20:02:00.793Z,99746.72
2022-09-15T20:07:02.382Z,99747.47
2022-09-15T20:12:04.087Z,99747.06
2022-09-15T20:17:05.925Z,99751.34
2022-09-15T20:22:07.511Z,99746.06
2022-09-15T20:27:09.142Z,99746.31
2022-09-15T20:32:10.721Z,99750.69
2022-09-15T20:37:12.291Z,99758.31
2022-09-15T20:42:13.791Z,99757.72
2022-09-15T20:47:15.615Z,99760.19
2022-09-15T20:52:17.102Z,99762.03
2022-09-15T20:57:18.591Z,99771.06
2022-09-15T21:02:20.180Z,99767.41
2022-09-15T21:07:23.822Z,99769.84
2022-09-15T21:12:25.455Z,99770.81
2022-09-15T21:17:28.927Z,99771.50
2022-09-15T21:22:30.414Z,99774.69
2022-09-15T21:27:31.956Z,99785.63
2022-09-15T21:32:33.751Z,99786.13
2022-09-15T21:37:35.401Z,99791.13
2022-09-15T21:42:36.910Z,99786.19
2022-09-15T21:47:38.405Z,99785.88
2022-09-15T21:52:39.926Z,99789.97
2022-09-15T21:57:41.451Z,99785.97
2022-09-15T22:02:42.977Z,99791.47
2022-09-15T22:07:44.523Z,99775.03
2022-09-15T22:12:48.216Z,99787.03
2022-09-15T22:17:49.936Z,99790.31
2022-09-15T22:22:51.678Z,99798.72
2022-09-15T22:27:53.174Z,99799.44
2022-09-15T22:32:54.660Z,99799.88
2022-09-15T22:37:56.215Z,99815.41
2022-09-15T22:42:57.786Z,99807.03
2022-09-15T22:47:59.290Z,99812.13
2022-09-15T22:53:00.841Z,99811.72
2022-09-15T22:58:02.338Z,99814.31
2022-09-15T23:03:04.168Z,99811.63
2022-09-15T23:08:05.669Z,99816.00
2022-09-15T23:13:07.180Z,99812.81
2022-09-15T23:18:08.735Z,99814.72
2022-09-15T23:23:10.525Z,99818.81
2022-09-15T23:28:12.023Z,99826.88
2022-09-15T23:33:13.545Z,99830.00
2022-09-15T23:38:15.667Z,99830.31
2022-09-15T23:43:17.896Z,99840.78
2022-09-15T23:48:20.017Z,99834.47
2022-09-15T23:53:21.707Z,99840.53
2022-09-15T23:58:23.227Z,99845.31
